Time;durP1;ratioP1;P1;durP2;ratioP2;P2;SDS_P1;SDS_P2;PMS_P1;PMS_P2;Temp;Humidity;BMP_temperature;BMP_pressure;BME280_temperature;BME280_humidity;BME280_pressure;Samples;Min_cycle;Max_cycle;Signal;HPM_P1;HPM_P2
2023/08/23 00:02:23;;;;;;;;;3.33;3.33;;;;;;;;5055820;28;51125;-58
2023/08/23 00:04:51;;;;;;;;;3.00;3.00;;;;;;;;5055543;28;51553;-58
2023/08/23 00:07:16;;;;;;;;;1.00;1.00;;;;;;;;5055276;28;51727;-58
2023/08/23 00:09:42;;;;;;;;;2.00;2.00;;;;;;;;5055307;28;51154;-58
2023/08/23 00:12:07;;;;;;;;;3.33;2.67;;;;;;;;5055718;28;50796;-58
2023/08/23 00:14:32;;;;;;;;;2.00;2.00;;;;;;;;5055643;28;51251;-58
2023/08/23 00:16:57;;;;;;;;;3.00;3.00;;;;;;;;5055264;28;51751;-58
2023/08/23 00:19:23;;;;;;;;;2.00;2.00;;;;;;;;5055271;28;50983;-58
2023/08/23 00:21:48;;;;;;;;;3.00;3.00;;;;;;;;5049397;28;51158;-58
2023/08/23 00:24:13;;;;;;;;;2.00;2.00;;;;;;;;5055676;28;50936;-58
2023/08/23 00:26:38;;;;;;;;;2.00;2.00;;;;;;;;5054987;28;51690;-58
2023/08/23 00:29:04;;;;;;;;;1.00;1.00;;;;;;;;5054921;28;50990;-58
2023/08/23 00:31:29;;;;;;;;;3.00;2.00;;;;;;;;5055118;28;51110;-58
2023/08/23 00:33:54;;;;;;;;;2.00;2.00;;;;;;;;5055565;28;51102;-58
2023/08/23 00:36:19;;;;;;;;;3.33;2.33;;;;;;;;5054924;28;51683;-58
2023/08/23 00:38:44;;;;;;;;;3.00;2.00;;;;;;;;5055310;28;50962;-58
2023/08/23 00:41:10;;;;;;;;;3.00;2.33;;;;;;;;5055023;28;51022;-58
2023/08/23 00:43:35;;;;;;;;;2.00;2.00;;;;;;;;5055384;28;51094;-58
2023/08/23 00:46:01;;;;;;;;;0.33;0.33;;;;;;;;5054692;28;51120;-58
2023/08/23 00:48:26;;;;;;;;;2.00;2.00;;;;;;;;5054922;28;50949;-59
2023/08/23 00:50:51;;;;;;;;;2.00;2.00;;;;;;;;5036775;28;51005;-58
2023/08/23 00:53:17;;;;;;;;;2.00;2.00;;;;;;;;5055185;28;51094;-58
2023/08/23 00:55:42;;;;;;;;;2.00;2.00;;;;;;;;5054569;28;51069;-58
2023/08/23 00:58:07;;;;;;;;;2.00;2.00;;;;;;;;5054574;28;50999;-59
2023/08/23 01:00:33;;;;;;;;;2.33;2.00;;;;;;;;5055093;28;51038;-58
2023/08/23 01:02:59;;;;;;;;;1.00;1.00;;;;;;;;5055270;28;51172;-58
2023/08/23 01:05:28;;;;;;;;;2.00;1.00;;;;;;;;5050066;28;52598;-58
2023/08/23 01:08:07;;;;;;;;;2.00;2.00;;;;;;;;5054673;28;51021;-58
2023/08/23 01:10:47;;;;;;;;;2.67;2.67;;;;;;;;5054389;28;50939;-58
2023/08/23 01:13:17;;;;;;;;;1.67;1.67;;;;;;;;5055037;28;51145;-58
2023/08/23 01:15:43;;;;;;;;;2.00;2.00;;;;;;;;5054615;28;51875;-58
2023/08/23 01:18:08;;;;;;;;;3.00;2.00;;;;;;;;5047239;28;51177;-58
2023/08/23 01:20:34;;;;;;;;;1.67;1.67;;;;;;;;5050297;28;51483;-58
2023/08/23 01:23:02;;;;;;;;;2.00;1.67;;;;;;;;5035108;28;50892;-58
2023/08/23 01:25:28;;;;;;;;;3.00;2.00;;;;;;;;5052609;28;51922;-58
2023/08/23 01:27:53;;;;;;;;;1.33;1.33;;;;;;;;5050076;28;51045;-58
2023/08/23 01:30:18;;;;;;;;;2.00;2.00;;;;;;;;5053381;28;51308;-58
2023/08/23 01:32:47;;;;;;;;;3.33;3.00;;;;;;;;5051973;28;51116;-58
2023/08/23 01:35:21;;;;;;;;;2.67;2.00;;;;;;;;5051537;28;51048;-58
2023/08/23 01:37:50;;;;;;;;;2.00;2.00;;;;;;;;5052267;28;51236;-59
2023/08/23 01:40:16;;;;;;;;;2.00;2.00;;;;;;;;5034900;28;51078;-59
2023/08/23 01:42:41;;;;;;;;;3.00;3.00;;;;;;;;5051555;28;50993;-58
2023/08/23 01:45:07;;;;;;;;;3.00;3.00;;;;;;;;5052552;28;51014;-58
2023/08/23 01:47:32;;;;;;;;;1.67;1.67;;;;;;;;5053281;28;51038;-60
2023/08/23 01:49:57;;;;;;;;;3.00;3.00;;;;;;;;5051936;28;51036;-58
2023/08/23 01:52:23;;;;;;;;;2.00;2.00;;;;;;;;5049306;28;51259;-59
2023/08/23 01:54:48;;;;;;;;;0.33;0.33;;;;;;;;5054379;28;52034;-58
2023/08/23 01:57:13;;;;;;;;;2.33;2.33;;;;;;;;5058040;28;51167;-58
2023/08/23 01:59:38;;;;;;;;;2.00;2.00;;;;;;;;5054221;28;51230;-58
2023/08/23 02:02:04;;;;;;;;;2.00;2.00;;;;;;;;5048541;28;51051;-58
2023/08/23 02:04:29;;;;;;;;;1.67;1.67;;;;;;;;5035552;28;52884;-58
2023/08/23 02:06:54;;;;;;;;;3.00;3.00;;;;;;;;5053714;28;51121;-58
2023/08/23 02:09:19;;;;;;;;;2.00;2.00;;;;;;;;5054001;28;52055;-58
2023/08/23 02:11:45;;;;;;;;;1.00;1.00;;;;;;;;5053113;28;51085;-58
2023/08/23 02:14:10;;;;;;;;;2.00;2.00;;;;;;;;5052419;28;51015;-58
2023/08/23 02:16:35;;;;;;;;;2.33;2.33;;;;;;;;5052504;28;50870;-58
2023/08/23 02:19:00;;;;;;;;;3.00;3.00;;;;;;;;5050808;28;51043;-59
2023/08/23 02:21:25;;;;;;;;;4.67;3.33;;;;;;;;5052673;28;51312;-58
2023/08/23 02:23:51;;;;;;;;;2.00;2.00;;;;;;;;5048453;28;52063;-58
2023/08/23 02:26:16;;;;;;;;;1.33;1.33;;;;;;;;5052047;28;51193;-58
2023/08/23 02:28:41;;;;;;;;;2.33;2.33;;;;;;;;5056550;28;51015;-58
2023/08/23 02:31:07;;;;;;;;;2.33;2.00;;;;;;;;5051359;28;51231;-58
2023/08/23 02:33:32;;;;;;;;;3.00;3.00;;;;;;;;5050008;28;51789;-58
2023/08/23 02:35:57;;;;;;;;;2.00;2.00;;;;;;;;5052125;28;51170;-58
2023/08/23 02:38:22;;;;;;;;;3.00;3.00;;;;;;;;5053355;28;51176;-59
2023/08/23 02:40:47;;;;;;;;;1.67;1.67;;;;;;;;5052620;28;51049;-58
2023/08/23 02:43:13;;;;;;;;;2.00;2.00;;;;;;;;5051176;28;51081;-59
2023/08/23 02:45:41;;;;;;;;;2.00;2.00;;;;;;;;5052087;28;51148;-58
2023/08/23 02:48:08;;;;;;;;;3.67;3.00;;;;;;;;5052327;28;50950;-58
2023/08/23 02:50:33;;;;;;;;;2.67;2.33;;;;;;;;5052171;28;50886;-58
2023/08/23 02:52:58;;;;;;;;;2.00;2.00;;;;;;;;5049340;28;51508;-58
2023/08/23 02:55:24;;;;;;;;;3.00;3.00;;;;;;;;5049029;28;50979;-58
2023/08/23 02:57:49;;;;;;;;;2.00;2.00;;;;;;;;5054987;28;51126;-58
2023/08/23 03:00:14;;;;;;;;;3.00;2.00;;;;;;;;5051437;28;51070;-58
2023/08/23 03:02:40;;;;;;;;;2.67;2.00;;;;;;;;5049337;28;52229;-58
2023/08/23 03:05:05;;;;;;;;;3.33;3.00;;;;;;;;5047537;28;50958;-58
2023/08/23 03:07:30;;;;;;;;;4.00;3.00;;;;;;;;5050397;28;51200;-58
2023/08/23 03:09:55;;;;;;;;;3.67;3.67;;;;;;;;5050523;28;50987;-59
2023/08/23 03:12:21;;;;;;;;;3.00;3.00;;;;;;;;5050972;28;50989;-58
2023/08/23 03:14:46;;;;;;;;;2.00;2.00;;;;;;;;5049154;28;51092;-59
2023/08/23 03:17:11;;;;;;;;;3.00;3.00;;;;;;;;5049889;28;51294;-58
2023/08/23 03:19:37;;;;;;;;;3.00;3.00;;;;;;;;5039117;28;50974;-58
2023/08/23 03:22:03;;;;;;;;;2.00;2.00;;;;;;;;5052191;28;51938;-61
2023/08/23 03:24:28;;;;;;;;;3.33;3.00;;;;;;;;5050841;28;51142;-58
2023/08/23 03:26:53;;;;;;;;;2.00;2.00;;;;;;;;5052654;28;51030;-58
2023/08/23 03:29:18;;;;;;;;;3.00;2.67;;;;;;;;5051977;28;50971;-58
2023/08/23 03:31:43;;;;;;;;;3.00;3.00;;;;;;;;5051462;28;51092;-58
2023/08/23 03:34:09;;;;;;;;;2.00;2.00;;;;;;;;5052488;28;50994;-57
2023/08/23 03:36:34;;;;;;;;;2.00;2.00;;;;;;;;5052574;28;50958;-58
2023/08/23 03:38:59;;;;;;;;;2.67;2.67;;;;;;;;5052732;28;50911;-57
2023/08/23 03:41:24;;;;;;;;;2.00;2.00;;;;;;;;5052041;28;52467;-57
2023/08/23 03:43:49;;;;;;;;;3.67;3.00;;;;;;;;5052417;28;51098;-58
2023/08/23 03:46:15;;;;;;;;;2.00;2.00;;;;;;;;5052305;28;51239;-58
2023/08/23 03:48:40;;;;;;;;;2.00;2.00;;;;;;;;5052440;28;51036;-58
2023/08/23 03:51:05;;;;;;;;;1.33;1.33;;;;;;;;5050644;28;52121;-57
2023/08/23 03:53:30;;;;;;;;;2.00;2.00;;;;;;;;5050746;28;51148;-59
2023/08/23 03:55:56;;;;;;;;;1.33;1.00;;;;;;;;5049005;28;50911;-58
2023/08/23 03:58:21;;;;;;;;;3.00;3.00;;;;;;;;5048698;28;51033;-58
2023/08/23 04:00:50;;;;;;;;;2.00;2.00;;;;;;;;5048273;28;51841;-58
2023/08/23 04:03:15;;;;;;;;;2.00;2.00;;;;;;;;5049632;28;51091;-59
2023/08/23 04:05:40;;;;;;;;;3.00;2.33;;;;;;;;5050191;28;51196;-59
2023/08/23 04:08:06;;;;;;;;;4.00;3.00;;;;;;;;5052098;28;51118;-59
2023/08/23 04:10:32;;;;;;;;;1.33;1.00;;;;;;;;5049499;28;52960;-57
2023/08/23 04:12:57;;;;;;;;;2.00;2.00;;;;;;;;5050043;28;51076;-58
2023/08/23 04:15:22;;;;;;;;;1.67;1.67;;;;;;;;5051136;28;51181;-59
2023/08/23 04:17:48;;;;;;;;;3.00;3.00;;;;;;;;5050879;28;51078;-59
2023/08/23 04:20:14;;;;;;;;;2.00;2.00;;;;;;;;5048251;28;51872;-59
2023/08/23 04:22:39;;;;;;;;;1.67;1.67;;;;;;;;5050009;28;50886;-59
2023/08/23 04:25:05;;;;;;;;;2.00;2.00;;;;;;;;5050572;28;51173;-59
2023/08/23 04:27:33;;;;;;;;;1.00;1.00;;;;;;;;5049929;28;51830;-58
2023/08/23 04:29:58;;;;;;;;;1.00;1.00;;;;;;;;5045578;28;51718;-58
2023/08/23 04:32:23;;;;;;;;;2.67;2.67;;;;;;;;5050559;28;51079;-59
2023/08/23 04:34:48;;;;;;;;;1.33;1.33;;;;;;;;5050818;28;51330;-59
2023/08/23 04:37:14;;;;;;;;;2.00;2.00;;;;;;;;5050888;28;51083;-58
2023/08/23 04:39:39;;;;;;;;;1.33;1.33;;;;;;;;5046861;28;51646;-59
2023/08/23 04:42:05;;;;;;;;;2.00;2.00;;;;;;;;5053704;28;51092;-57
2023/08/23 04:44:30;;;;;;;;;2.67;2.00;;;;;;;;5054133;28;51138;-59
2023/08/23 04:46:55;;;;;;;;;3.00;2.00;;;;;;;;5054002;28;51154;-59
2023/08/23 04:49:20;;;;;;;;;3.00;2.33;;;;;;;;5052373;28;51123;-58
2023/08/23 04:51:45;;;;;;;;;2.00;2.00;;;;;;;;5054068;28;51138;-59
2023/08/23 04:54:11;;;;;;;;;3.67;3.00;;;;;;;;5052608;28;50986;-58
2023/08/23 04:56:36;;;;;;;;;1.00;1.00;;;;;;;;5053981;28;51043;-58
2023/08/23 04:59:02;;;;;;;;;1.00;1.00;;;;;;;;5048738;28;52886;-58
2023/08/23 05:01:27;;;;;;;;;1.67;1.67;;;;;;;;5052503;28;51053;-58
2023/08/23 05:03:52;;;;;;;;;4.00;3.00;;;;;;;;5053400;28;51183;-58
2023/08/23 05:06:18;;;;;;;;;1.67;1.67;;;;;;;;5049846;28;51206;-58
2023/08/23 05:08:43;;;;;;;;;3.00;3.00;;;;;;;;5053667;28;52251;-59
2023/08/23 05:11:08;;;;;;;;;1.33;1.33;;;;;;;;5052437;28;51282;-58
2023/08/23 05:13:33;;;;;;;;;3.00;3.00;;;;;;;;5054274;28;51160;-58
2023/08/23 05:15:58;;;;;;;;;2.33;2.00;;;;;;;;5054054;28;51181;-58
2023/08/23 05:18:24;;;;;;;;;2.00;2.00;;;;;;;;5049897;28;51329;-59
2023/08/23 05:20:53;;;;;;;;;2.33;2.33;;;;;;;;5049187;28;51211;-58
2023/08/23 05:23:18;;;;;;;;;2.33;2.33;;;;;;;;5034486;28;51034;-59
2023/08/23 05:25:43;;;;;;;;;4.00;3.00;;;;;;;;5049686;28;51309;-58
2023/08/23 05:28:09;;;;;;;;;2.00;2.00;;;;;;;;5048161;28;51789;-59
2023/08/23 05:30:37;;;;;;;;;3.00;3.00;;;;;;;;5054378;28;51046;-58
2023/08/23 05:33:02;;;;;;;;;2.00;2.00;;;;;;;;5054265;28;51106;-59
2023/08/23 05:35:27;;;;;;;;;3.00;3.00;;;;;;;;5054404;28;52063;-59
2023/08/23 05:37:53;;;;;;;;;2.00;2.00;;;;;;;;5053821;28;51899;-59
2023/08/23 05:40:18;;;;;;;;;3.33;3.33;;;;;;;;5054214;28;50954;-58
2023/08/23 05:42:43;;;;;;;;;4.00;3.67;;;;;;;;5053626;28;51126;-59
2023/08/23 05:45:08;;;;;;;;;3.67;3.67;;;;;;;;5054352;28;51051;-59
2023/08/23 05:47:34;;;;;;;;;3.00;3.00;;;;;;;;5053498;28;51967;-58
2023/08/23 05:49:59;;;;;;;;;3.00;3.00;;;;;;;;5053705;28;50982;-59
2023/08/23 05:52:24;;;;;;;;;4.00;4.00;;;;;;;;5053573;28;51088;-59
2023/08/23 05:54:49;;;;;;;;;2.00;2.00;;;;;;;;5053973;28;51003;-59
2023/08/23 05:57:14;;;;;;;;;3.33;3.33;;;;;;;;5053038;28;51006;-58
2023/08/23 05:59:40;;;;;;;;;3.00;2.33;;;;;;;;5053645;28;50950;-58
2023/08/23 06:02:05;;;;;;;;;3.00;3.00;;;;;;;;5047407;28;51653;-59
2023/08/23 06:04:31;;;;;;;;;3.33;3.33;;;;;;;;5053093;28;51078;-59
2023/08/23 06:06:56;;;;;;;;;3.00;3.00;;;;;;;;5045406;28;51747;-59
2023/08/23 06:09:22;;;;;;;;;4.00;4.00;;;;;;;;5052989;28;50987;-59
2023/08/23 06:11:47;;;;;;;;;5.00;4.33;;;;;;;;5053400;28;51232;-59
2023/08/23 06:14:19;;;;;;;;;4.00;3.00;;;;;;;;5053689;28;50893;-59
2023/08/23 06:16:45;;;;;;;;;2.67;2.33;;;;;;;;5052949;28;51679;-58
2023/08/23 06:19:11;;;;;;;;;3.00;3.00;;;;;;;;5053360;28;51018;-59
2023/08/23 06:21:37;;;;;;;;;2.33;2.33;;;;;;;;5053361;28;50919;-59
2023/08/23 06:24:02;;;;;;;;;4.00;4.00;;;;;;;;5053441;28;50950;-59
2023/08/23 06:26:29;;;;;;;;;3.00;3.00;;;;;;;;5052939;28;51243;-61
2023/08/23 06:28:54;;;;;;;;;7.00;5.00;;;;;;;;5053798;28;51374;-59
2023/08/23 06:31:20;;;;;;;;;3.00;3.00;;;;;;;;5053357;28;51385;-59
2023/08/23 06:33:45;;;;;;;;;4.00;4.00;;;;;;;;5053613;28;51223;-59
2023/08/23 06:36:10;;;;;;;;;4.00;3.00;;;;;;;;5053150;28;51923;-59
2023/08/23 06:38:35;;;;;;;;;3.00;3.00;;;;;;;;5053430;28;50931;-59
2023/08/23 06:41:00;;;;;;;;;6.00;6.00;;;;;;;;5053446;28;51233;-59
2023/08/23 06:43:26;;;;;;;;;4.00;4.00;;;;;;;;5053533;28;51304;-59
2023/08/23 06:45:51;;;;;;;;;4.67;4.67;;;;;;;;5052950;28;52419;-59
2023/08/23 06:48:16;;;;;;;;;3.67;3.67;;;;;;;;5053351;28;51094;-58
2023/08/23 06:50:42;;;;;;;;;6.00;4.67;;;;;;;;5034862;28;51071;-58
2023/08/23 06:53:07;;;;;;;;;2.33;2.33;;;;;;;;5053177;28;51007;-58
2023/08/23 06:55:32;;;;;;;;;3.67;3.33;;;;;;;;5052481;28;51673;-57
2023/08/23 06:57:58;;;;;;;;;4.00;4.00;;;;;;;;5052384;28;51190;-59
2023/08/23 07:00:23;;;;;;;;;4.00;4.00;;;;;;;;5052884;28;50859;-58
2023/08/23 07:02:49;;;;;;;;;3.33;3.33;;;;;;;;5026685;28;51303;-58
2023/08/23 07:05:14;;;;;;;;;4.67;4.67;;;;;;;;5019946;28;51142;-59
2023/08/23 07:07:39;;;;;;;;;3.00;3.00;;;;;;;;5031077;28;51229;-59
2023/08/23 07:10:05;;;;;;;;;3.67;3.67;;;;;;;;5032624;28;51201;-58
2023/08/23 07:12:30;;;;;;;;;4.33;4.33;;;;;;;;5032701;28;51221;-59
2023/08/23 07:14:56;;;;;;;;;4.67;4.00;;;;;;;;5032074;28;51103;-59
2023/08/23 07:17:21;;;;;;;;;3.33;3.33;;;;;;;;5032155;28;51003;-59
2023/08/23 07:19:48;;;;;;;;;5.67;5.67;;;;;;;;5032185;28;51260;-58
2023/08/23 07:22:13;;;;;;;;;5.00;5.00;;;;;;;;5032819;28;50975;-59
2023/08/23 07:24:39;;;;;;;;;4.33;4.33;;;;;;;;5031857;28;52022;-59
2023/08/23 07:27:04;;;;;;;;;4.00;4.00;;;;;;;;5032467;28;50967;-59
2023/08/23 07:29:29;;;;;;;;;3.00;3.00;;;;;;;;5032109;28;50994;-59
2023/08/23 07:31:55;;;;;;;;;4.33;4.33;;;;;;;;5032565;28;51065;-59
2023/08/23 07:34:20;;;;;;;;;5.00;5.00;;;;;;;;5031740;28;52131;-59
2023/08/23 07:36:45;;;;;;;;;3.67;3.67;;;;;;;;5030849;28;51037;-59
2023/08/23 07:39:10;;;;;;;;;2.67;2.33;;;;;;;;5032218;28;51198;-59
2023/08/23 07:41:35;;;;;;;;;4.33;4.33;;;;;;;;5032291;28;51201;-59
2023/08/23 07:44:01;;;;;;;;;3.67;3.67;;;;;;;;5032001;28;52023;-59
2023/08/23 07:46:26;;;;;;;;;5.33;4.00;;;;;;;;5032031;28;51067;-59
2023/08/23 07:48:51;;;;;;;;;3.67;3.67;;;;;;;;5032286;28;51237;-58
2023/08/23 07:51:16;;;;;;;;;3.00;3.00;;;;;;;;5032469;28;50950;-59
2023/08/23 07:53:43;;;;;;;;;5.00;4.33;;;;;;;;5031825;28;51907;-59
2023/08/23 07:56:08;;;;;;;;;3.00;3.00;;;;;;;;5031788;28;51112;-59
2023/08/23 07:58:34;;;;;;;;;4.33;3.33;;;;;;;;5031499;28;51491;-58
2023/08/23 08:00:59;;;;;;;;;6.00;5.00;;;;;;;;5031855;28;51090;-60
2023/08/23 08:03:28;;;;;;;;;4.33;4.00;;;;;;;;5030922;28;50953;-58
2023/08/23 08:05:53;;;;;;;;;5.00;4.00;;;;;;;;5038628;28;51008;-58
2023/08/23 08:08:18;;;;;;;;;3.00;3.00;;;;;;;;5051847;28;50959;-58
2023/08/23 08:10:43;;;;;;;;;2.00;2.00;;;;;;;;5051913;28;51274;-59
2023/08/23 08:13:08;;;;;;;;;3.67;3.67;;;;;;;;5044927;28;52131;-60
2023/08/23 08:15:34;;;;;;;;;4.00;3.33;;;;;;;;5054328;28;51011;-59
2023/08/23 08:17:59;;;;;;;;;2.00;2.00;;;;;;;;5055052;28;51215;-57
2023/08/23 08:20:24;;;;;;;;;4.00;4.00;;;;;;;;5055418;28;50880;-57
2023/08/23 08:22:50;;;;;;;;;3.33;3.33;;;;;;;;5055009;28;51206;-59
2023/08/23 08:25:16;;;;;;;;;3.67;3.00;;;;;;;;5054750;28;51246;-59
2023/08/23 08:27:41;;;;;;;;;3.00;3.00;;;;;;;;5055006;28;51259;-59
2023/08/23 08:30:07;;;;;;;;;3.00;3.00;;;;;;;;5054882;28;51045;-59
2023/08/23 08:32:32;;;;;;;;;3.67;3.33;;;;;;;;5054996;28;51879;-60
2023/08/23 08:34:57;;;;;;;;;3.00;3.00;;;;;;;;5053505;28;51095;-59
2023/08/23 08:37:24;;;;;;;;;2.00;2.00;;;;;;;;5054854;28;51087;-59
2023/08/23 08:39:49;;;;;;;;;5.00;3.33;;;;;;;;5055147;28;50853;-58
2023/08/23 08:42:14;;;;;;;;;4.00;4.00;;;;;;;;5054153;28;52760;-58
2023/08/23 08:44:40;;;;;;;;;3.33;3.33;;;;;;;;5055141;28;50912;-58
2023/08/23 08:47:05;;;;;;;;;3.00;3.00;;;;;;;;5054620;28;51482;-58
2023/08/23 08:49:30;;;;;;;;;4.00;4.00;;;;;;;;5053832;28;51101;-58
2023/08/23 08:51:57;;;;;;;;;5.00;4.00;;;;;;;;5054351;28;50935;-58
2023/08/23 08:54:23;;;;;;;;;4.67;3.67;;;;;;;;5054847;28;51028;-59
2023/08/23 08:56:50;;;;;;;;;3.00;3.00;;;;;;;;5054233;28;50931;-58
2023/08/23 08:59:15;;;;;;;;;7.67;6.00;;;;;;;;5054934;28;51095;-59
2023/08/23 09:01:42;;;;;;;;;3.00;3.00;;;;;;;;5054081;28;51752;-59
2023/08/23 09:04:07;;;;;;;;;7.33;5.33;;;;;;;;5054319;28;51189;-58
2023/08/23 09:06:34;;;;;;;;;5.67;4.67;;;;;;;;5054490;28;51015;-58
2023/08/23 09:09:00;;;;;;;;;7.33;7.00;;;;;;;;5054664;28;50974;-59
2023/08/23 09:11:26;;;;;;;;;10.33;7.33;;;;;;;;5053978;28;51932;-58
2023/08/23 09:13:51;;;;;;;;;6.33;6.00;;;;;;;;5053802;28;50952;-59
2023/08/23 09:16:16;;;;;;;;;5.33;4.33;;;;;;;;5054054;28;51050;-58
2023/08/23 09:18:44;;;;;;;;;4.00;4.00;;;;;;;;5054025;28;52003;-58
2023/08/23 09:21:12;;;;;;;;;7.67;6.00;;;;;;;;5053957;28;51794;-58
2023/08/23 09:23:37;;;;;;;;;7.33;6.67;;;;;;;;5053752;28;51091;-58
2023/08/23 09:26:02;;;;;;;;;7.33;7.33;;;;;;;;5051609;28;51537;-58
2023/08/23 09:28:29;;;;;;;;;6.00;5.00;;;;;;;;5054078;28;51324;-58
2023/08/23 09:30:54;;;;;;;;;5.00;4.33;;;;;;;;5053776;28;51927;-59
2023/08/23 09:33:19;;;;;;;;;3.67;3.67;;;;;;;;5053682;28;50881;-58
2023/08/23 09:35:48;;;;;;;;;6.00;6.00;;;;;;;;5053929;28;51207;-59
2023/08/23 09:38:17;;;;;;;;;5.00;5.00;;;;;;;;5036178;28;51340;-59
2023/08/23 09:40:43;;;;;;;;;5.00;5.00;;;;;;;;5052886;28;52704;-59
2023/08/23 09:43:10;;;;;;;;;5.00;4.00;;;;;;;;5053620;28;51180;-59
2023/08/23 09:45:35;;;;;;;;;3.67;3.33;;;;;;;;5032629;28;50937;-59
2023/08/23 09:48:05;;;;;;;;;4.67;4.67;;;;;;;;5053745;28;51197;-60
2023/08/23 09:50:32;;;;;;;;;4.67;4.67;;;;;;;;5053786;28;51914;-60
2023/08/23 09:53:04;;;;;;;;;2.33;2.33;;;;;;;;5054091;28;51029;-59
2023/08/23 09:55:32;;;;;;;;;5.00;5.00;;;;;;;;5053462;28;50929;-60
2023/08/23 09:57:59;;;;;;;;;6.67;6.33;;;;;;;;5050019;28;51098;-59
2023/08/23 10:00:25;;;;;;;;;5.00;4.67;;;;;;;;5053192;28;52031;-59
2023/08/23 10:02:51;;;;;;;;;7.00;5.00;;;;;;;;5053315;28;51108;-60
2023/08/23 10:05:18;;;;;;;;;5.00;5.00;;;;;;;;5052768;28;50923;-58
2023/08/23 10:07:43;;;;;;;;;5.00;5.00;;;;;;;;5053450;28;51204;-58
2023/08/23 10:10:09;;;;;;;;;6.00;4.67;;;;;;;;5052406;28;51382;-58
2023/08/23 10:12:45;;;;;;;;;5.50;5.50;;;;;;;;5048036;28;50807;-59
2023/08/23 10:15:12;;;;;;;;;5.00;5.00;;;;;;;;5051238;28;51105;-59
2023/08/23 10:17:37;;;;;;;;;8.33;7.33;;;;;;;;5052704;28;51222;-58
2023/08/23 10:20:09;;;;;;;;;8.33;7.67;;;;;;;;5052733;28;51549;-59
2023/08/23 10:22:34;;;;;;;;;4.67;4.33;;;;;;;;5052617;28;50966;-59
2023/08/23 10:25:00;;;;;;;;;5.67;5.67;;;;;;;;5052890;28;50907;-59
2023/08/23 10:27:25;;;;;;;;;8.67;8.00;;;;;;;;5052942;28;51048;-59
2023/08/23 10:29:50;;;;;;;;;6.00;6.00;;;;;;;;5052692;28;51762;-59
2023/08/23 10:32:17;;;;;;;;;8.33;8.33;;;;;;;;5052664;28;50979;-59
2023/08/23 10:34:42;;;;;;;;;6.67;5.33;;;;;;;;5052863;28;51034;-60
2023/08/23 10:37:19;;;;;;;;;6.00;4.67;;;;;;;;5052196;28;51378;-58
2023/08/23 10:39:49;;;;;;;;;10.00;9.33;;;;;;;;5052508;28;51920;-58
2023/08/23 10:42:14;;;;;;;;;5.00;5.00;;;;;;;;5051895;28;50975;-59
2023/08/23 10:44:49;;;;;;;;;5.00;5.00;;;;;;;;5052431;28;50982;-58
2023/08/23 10:47:15;;;;;;;;;8.33;6.67;;;;;;;;5041177;28;51100;-58
2023/08/23 10:49:40;;;;;;;;;6.00;6.00;;;;;;;;5052040;28;51091;-59
2023/08/23 10:52:06;;;;;;;;;5.00;5.00;;;;;;;;5052610;28;50940;-59
2023/08/23 10:54:32;;;;;;;;;6.00;6.00;;;;;;;;5034321;28;50950;-63
2023/08/23 10:56:58;;;;;;;;;7.00;7.00;;;;;;;;5052580;28;51079;-59
2023/08/23 10:59:23;;;;;;;;;8.33;8.00;;;;;;;;5052025;28;51908;-59
2023/08/23 11:01:50;;;;;;;;;5.67;5.00;;;;;;;;5052426;28;51057;-60
2023/08/23 11:04:15;;;;;;;;;6.33;6.00;;;;;;;;5051962;28;51172;-59
2023/08/23 11:06:40;;;;;;;;;5.67;5.00;;;;;;;;5052326;28;51150;-59
2023/08/23 11:09:07;;;;;;;;;6.33;6.33;;;;;;;;5052091;28;52241;-59
2023/08/23 11:11:32;;;;;;;;;5.67;5.67;;;;;;;;5051902;28;51042;-59
2023/08/23 11:13:57;;;;;;;;;6.33;5.33;;;;;;;;5051994;28;51119;-59
2023/08/23 11:16:23;;;;;;;;;7.00;6.00;;;;;;;;5052292;28;50980;-59
2023/08/23 11:18:49;;;;;;;;;10.00;9.67;;;;;;;;5051834;28;51869;-59
2023/08/23 11:21:15;;;;;;;;;8.00;7.00;;;;;;;;5052213;28;50953;-59
2023/08/23 11:23:40;;;;;;;;;6.00;6.00;;;;;;;;5051916;28;50991;-60
2023/08/23 11:26:05;;;;;;;;;6.67;6.67;;;;;;;;5052369;28;51038;-59
2023/08/23 11:28:31;;;;;;;;;7.67;7.33;;;;;;;;5051734;28;51868;-59
2023/08/23 11:30:59;;;;;;;;;7.33;7.33;;;;;;;;5052191;28;50978;-59
2023/08/23 11:33:25;;;;;;;;;6.00;6.00;;;;;;;;5051934;28;50943;-59
2023/08/23 11:35:50;;;;;;;;;9.00;8.67;;;;;;;;5051758;28;50823;-59
2023/08/23 11:38:16;;;;;;;;;6.33;6.00;;;;;;;;5051488;28;51698;-59
2023/08/23 11:40:43;;;;;;;;;6.00;6.00;;;;;;;;5051645;28;51042;-59
2023/08/23 11:43:13;;;;;;;;;5.67;5.67;;;;;;;;5051790;28;51336;-58
2023/08/23 11:45:38;;;;;;;;;6.00;5.33;;;;;;;;5051484;28;51262;-59
2023/08/23 11:48:03;;;;;;;;;6.00;5.33;;;;;;;;5051446;28;51070;-58
2023/08/23 11:50:28;;;;;;;;;7.00;7.00;;;;;;;;5054489;28;50993;-60
2023/08/23 11:52:53;;;;;;;;;7.00;7.00;;;;;;;;5037341;28;51140;-60
2023/08/23 11:55:20;;;;;;;;;8.33;8.00;;;;;;;;5055283;28;51129;-59
2023/08/23 11:57:50;;;;;;;;;8.00;6.00;;;;;;;;5050240;28;51967;-59
2023/08/23 12:00:16;;;;;;;;;8.67;8.67;;;;;;;;5055263;28;51102;-59
2023/08/23 12:02:41;;;;;;;;;5.67;5.67;;;;;;;;5055056;28;51100;-60
2023/08/23 12:05:06;;;;;;;;;7.00;6.67;;;;;;;;5055403;28;51022;-59
2023/08/23 12:07:31;;;;;;;;;6.33;5.33;;;;;;;;5055125;28;51873;-60
2023/08/23 12:09:57;;;;;;;;;8.00;6.67;;;;;;;;5055194;28;51006;-58
2023/08/23 12:12:22;;;;;;;;;6.67;6.67;;;;;;;;5055025;28;51104;-59
2023/08/23 12:14:47;;;;;;;;;6.00;6.00;;;;;;;;5050259;28;51212;-59
2023/08/23 12:17:13;;;;;;;;;6.00;6.00;;;;;;;;5054691;28;51902;-59
2023/08/23 12:19:38;;;;;;;;;6.00;6.00;;;;;;;;5054972;28;51317;-58
2023/08/23 12:22:06;;;;;;;;;5.33;5.33;;;;;;;;5054479;28;51205;-58
2023/08/23 12:24:31;;;;;;;;;6.00;6.00;;;;;;;;5055137;28;51117;-59
2023/08/23 12:26:57;;;;;;;;;6.00;6.00;;;;;;;;5054286;28;51071;-58
2023/08/23 12:29:23;;;;;;;;;6.00;6.00;;;;;;;;5055088;28;51131;-59
2023/08/23 12:31:49;;;;;;;;;6.67;6.67;;;;;;;;5054663;28;50950;-59
2023/08/23 12:34:14;;;;;;;;;8.33;7.00;;;;;;;;5054682;28;51256;-60
2023/08/23 12:36:39;;;;;;;;;7.00;6.00;;;;;;;;5054393;28;51645;-59
2023/08/23 12:39:04;;;;;;;;;5.33;5.33;;;;;;;;5054555;28;50945;-60
2023/08/23 12:41:30;;;;;;;;;7.00;7.00;;;;;;;;5053831;28;51526;-60
2023/08/23 12:43:56;;;;;;;;;4.67;4.67;;;;;;;;5054531;28;51303;-60
2023/08/23 12:46:21;;;;;;;;;10.00;10.00;;;;;;;;5053784;28;51250;-59
2023/08/23 12:48:46;;;;;;;;;8.00;7.00;;;;;;;;5047610;28;51066;-60
2023/08/23 12:51:11;;;;;;;;;6.00;6.00;;;;;;;;5050390;28;51108;-58
2023/08/23 12:53:36;;;;;;;;;5.67;5.67;;;;;;;;5054533;28;51739;-58
2023/08/23 12:56:02;;;;;;;;;7.67;7.00;;;;;;;;5054154;28;51104;-59
2023/08/23 12:58:28;;;;;;;;;6.00;6.00;;;;;;;;5053863;28;51011;-60
2023/08/23 13:00:53;;;;;;;;;6.00;6.00;;;;;;;;5053149;28;50932;-59
2023/08/23 13:03:18;;;;;;;;;5.00;5.00;;;;;;;;5054692;28;51351;-59
2023/08/23 13:05:43;;;;;;;;;7.67;7.00;;;;;;;;5053999;28;53219;-59
2023/08/23 13:08:09;;;;;;;;;5.00;5.00;;;;;;;;5054690;28;50992;-58
2023/08/23 13:10:34;;;;;;;;;6.00;5.00;;;;;;;;5054300;28;51825;-59
2023/08/23 13:13:00;;;;;;;;;7.67;5.67;;;;;;;;5054505;28;51127;-59
2023/08/23 13:15:25;;;;;;;;;5.67;5.67;;;;;;;;5053636;28;51859;-59
2023/08/23 13:17:54;;;;;;;;;6.67;6.33;;;;;;;;5054334;28;50891;-59
2023/08/23 13:20:19;;;;;;;;;5.67;5.33;;;;;;;;5054186;28;51096;-59
2023/08/23 13:22:45;;;;;;;;;6.00;6.00;;;;;;;;5054233;28;51179;-58
2023/08/23 13:25:10;;;;;;;;;4.67;4.33;;;;;;;;5053524;28;51849;-58
2023/08/23 13:27:35;;;;;;;;;6.00;5.00;;;;;;;;5054150;28;50948;-59
2023/08/23 13:30:00;;;;;;;;;6.67;5.67;;;;;;;;5054208;28;51033;-59
2023/08/23 13:32:26;;;;;;;;;8.33;7.00;;;;;;;;5053970;28;51188;-58
2023/08/23 13:34:51;;;;;;;;;6.00;6.00;;;;;;;;5053291;28;51068;-58
2023/08/23 13:37:16;;;;;;;;;7.00;6.33;;;;;;;;5054085;28;51226;-58
2023/08/23 13:39:41;;;;;;;;;4.33;4.33;;;;;;;;5054046;28;50957;-59
2023/08/23 13:42:06;;;;;;;;;6.33;6.33;;;;;;;;5054095;28;51126;-58
2023/08/23 13:44:32;;;;;;;;;7.67;7.00;;;;;;;;5053408;28;51069;-60
2023/08/23 13:46:58;;;;;;;;;8.00;8.00;;;;;;;;5053030;28;50943;-58
2023/08/23 13:49:23;;;;;;;;;6.00;6.00;;;;;;;;5053322;28;51318;-59
2023/08/23 13:51:49;;;;;;;;;6.00;5.00;;;;;;;;5053672;28;51202;-59
2023/08/23 13:54:14;;;;;;;;;7.00;7.00;;;;;;;;5053064;28;51701;-58
2023/08/23 13:56:39;;;;;;;;;6.00;6.00;;;;;;;;5052908;28;51228;-59
2023/08/23 13:59:04;;;;;;;;;6.00;6.00;;;;;;;;5053143;28;51190;-59
2023/08/23 14:01:29;;;;;;;;;6.00;6.00;;;;;;;;5053989;28;50994;-59
2023/08/23 14:03:55;;;;;;;;;8.00;7.67;;;;;;;;5053197;28;51161;-60
2023/08/23 14:06:20;;;;;;;;;7.00;6.67;;;;;;;;5053429;28;50861;-59
2023/08/23 14:08:45;;;;;;;;;8.00;8.00;;;;;;;;5086761;28;50983;-60
2023/08/23 14:11:10;;;;;;;;;8.00;7.00;;;;;;;;5084210;28;50747;-60
2023/08/23 14:13:36;;;;;;;;;6.00;6.00;;;;;;;;5090970;28;8795;-60
2023/08/23 14:16:01;;;;;;;;;7.00;5.00;;;;;;;;5084535;28;8799;-60
2023/08/23 14:18:26;;;;;;;;;7.67;7.67;;;;;;;;5091039;28;8832;-60
2023/08/23 14:20:52;;;;;;;;;7.33;7.33;;;;;;;;5091649;28;8806;-60
2023/08/23 14:23:17;;;;;;;;;5.67;5.67;;;;;;;;5091579;28;8798;-59
2023/08/23 14:25:42;;;;;;;;;7.33;7.00;;;;;;;;5091122;28;9586;-60
2023/08/23 14:28:08;;;;;;;;;6.67;6.00;;;;;;;;5091462;28;8799;-60
2023/08/23 14:30:40;;;;;;;;;5.67;5.33;;;;;;;;5091430;28;8799;-59
2023/08/23 14:33:06;;;;;;;;;5.67;5.00;;;;;;;;5091545;28;8782;-60
2023/08/23 14:35:31;;;;;;;;;8.00;7.00;;;;;;;;5080984;28;8927;-60